createdAt,value
2022-10-28T00:01:17.411Z,1.90
2022-10-28T00:03:47.269Z,3.03
2022-10-28T00:06:17.165Z,2.03
2022-10-28T00:08:44.491Z,2.70
2022-10-28T00:11:14.918Z,2.22
2022-10-28T00:13:43.186Z,1.98
2022-10-28T00:16:16.179Z,2.55
2022-10-28T00:18:43.775Z,2.22
2022-10-28T00:21:13.774Z,2.53
2022-10-28T00:23:41.316Z,2.58
2022-10-28T00:26:13.782Z,3.25
2022-10-28T00:28:42.963Z,1.83
2022-10-28T00:31:11.846Z,2.40
2022-10-28T00:33:39.097Z,2.13
2022-10-28T00:36:15.353Z,2.17
2022-10-28T00:38:43.799Z,2.50
2022-10-28T00:41:12.632Z,2.55
2022-10-28T00:43:43.081Z,2.45
2022-10-28T00:46:43.949Z,2.90
2022-10-28T00:49:28.275Z,2.08
2022-10-28T00:52:00.100Z,2.40
2022-10-28T00:54:27.771Z,2.58
2022-10-28T00:56:56.737Z,1.90
2022-10-28T00:59:29.628Z,2.33
2022-10-28T01:01:56.971Z,2.20
2022-10-28T01:04:24.282Z,2.25
2022-10-28T01:06:52.079Z,2.13
2022-10-28T01:09:19.412Z,2.40
2022-10-28T01:12:05.381Z,2.78
2022-10-28T01:14:38.275Z,2.83
2022-10-28T01:17:24.414Z,2.45
2022-10-28T01:20:09.075Z,2.45
2022-10-28T01:22:52.295Z,3.40
2022-10-28T01:25:25.859Z,2.58
2022-10-28T01:28:20.823Z,3.38
2022-10-28T01:31:23.883Z,3.42
2022-10-28T01:34:03.286Z,2.58
2022-10-28T01:36:37.766Z,2.47
2022-10-28T01:39:37.269Z,3.05
2022-10-28T01:42:29.396Z,2.65
2022-10-28T01:45:02.470Z,2.95
2022-10-28T01:47:34.746Z,2.38
2022-10-28T01:50:09.075Z,2.13
2022-10-28T01:52:38.595Z,2.88
2022-10-28T01:55:19.030Z,3.15
2022-10-28T01:57:47.744Z,2.38
2022-10-28T02:00:19.301Z,3.03
2022-10-28T02:02:51.412Z,2.15
2022-10-28T02:05:38.402Z,2.70
2022-10-28T02:08:17.635Z,2.42
2022-10-28T02:10:56.727Z,2.03
2022-10-28T02:13:30.408Z,2.00
2022-10-28T02:16:12.655Z,2.92
2022-10-28T02:19:00.502Z,2.53
2022-10-28T02:21:43.733Z,2.22
2022-10-28T02:24:19.345Z,1.95
2022-10-28T02:27:07.315Z,2.25
2022-10-28T02:29:50.345Z,2.10
2022-10-28T02:32:24.755Z,2.25
2022-10-28T02:35:00.943Z,2.20
2022-10-28T02:37:31.240Z,2.38
2022-10-28T02:40:04.401Z,2.22
2022-10-28T02:42:35.473Z,2.22
2022-10-28T02:46:02.076Z,2.15
2022-10-28T02:51:35.796Z,2.95
2022-10-28T02:54:14.640Z,2.08
2022-10-28T02:56:48.716Z,2.75
2022-10-28T02:59:15.863Z,1.80
2022-10-28T03:01:43.105Z,2.05
2022-10-28T03:04:10.417Z,2.83
2022-10-28T03:06:37.606Z,2.38
2022-10-28T03:09:04.804Z,2.35
2022-10-28T03:11:31.958Z,2.15
2022-10-28T03:13:59.148Z,2.30
2022-10-28T03:16:28.994Z,1.85
2022-10-28T03:18:56.304Z,2.33
2022-10-28T03:21:23.549Z,1.75
2022-10-28T03:23:50.702Z,1.92
2022-10-28T03:26:17.875Z,2.53
2022-10-28T03:28:45.119Z,2.28
2022-10-28T03:31:12.374Z,2.10
2022-10-28T03:33:39.503Z,1.85
2022-10-28T03:36:06.962Z,2.22
2022-10-28T03:38:34.092Z,2.53
2022-10-28T03:41:01.326Z,1.80
2022-10-28T03:43:28.520Z,1.92
2022-10-28T03:45:55.661Z,2.30
2022-10-28T03:48:22.789Z,2.38
2022-10-28T03:50:54.127Z,2.30
2022-10-28T03:53:21.782Z,1.90
2022-10-28T03:55:59.259Z,1.80
2022-10-28T03:58:26.437Z,2.10
2022-10-28T04:00:54.358Z,1.98
2022-10-28T04:03:22.827Z,1.65
2022-10-28T04:05:50.173Z,1.80
2022-10-28T04:08:18.370Z,2.05
2022-10-28T04:10:47.537Z,2.03
2022-10-28T04:13:15.407Z,1.70
2022-10-28T04:15:42.751Z,2.20
2022-10-28T04:18:10.449Z,2.30
2022-10-28T04:20:37.683Z,2.35
2022-10-28T04:23:04.845Z,2.00
2022-10-28T04:25:32.043Z,2.25
2022-10-28T04:27:59.162Z,1.75
2022-10-28T04:30:26.311Z,2.33
2022-10-28T04:32:53.545Z,2.30
2022-10-28T04:35:20.741Z,2.28
2022-10-28T04:37:47.873Z,2.50
2022-10-28T04:40:15.046Z,2.00
2022-10-28T04:42:42.184Z,2.00
2022-10-28T04:45:10.047Z,1.85
2022-10-28T04:47:37.188Z,1.90
2022-10-28T04:50:04.853Z,2.28
2022-10-28T04:52:31.974Z,1.85
2022-10-28T04:54:59.118Z,2.13
2022-10-28T04:57:26.447Z,1.95
2022-10-28T04:59:53.584Z,2.58
2022-10-28T05:02:23.332Z,1.88
2022-10-28T05:04:50.567Z,1.93
2022-10-28T05:07:19.988Z,2.35
2022-10-28T05:09:49.938Z,1.85
2022-10-28T05:12:17.072Z,1.60
2022-10-28T05:14:44.198Z,1.80
2022-10-28T05:17:11.940Z,2.30
2022-10-28T05:19:39.091Z,2.15
2022-10-28T05:22:06.209Z,2.38
2022-10-28T05:24:33.415Z,2.30
2022-10-28T05:27:00.873Z,2.25
2022-10-28T05:29:33.025Z,2.05
2022-10-28T05:32:01.024Z,2.00
2022-10-28T05:34:28.203Z,2.22
2022-10-28T05:36:55.327Z,1.30
2022-10-28T05:39:22.471Z,1.85
2022-10-28T05:41:49.626Z,1.83
2022-10-28T05:44:16.755Z,1.50
2022-10-28T05:46:43.891Z,1.92
2022-10-28T05:49:11.002Z,1.95
2022-10-28T05:51:38.136Z,1.90
2022-10-28T05:54:05.540Z,1.55
2022-10-28T05:56:32.683Z,2.00
2022-10-28T05:58:59.869Z,1.83
2022-10-28T06:01:27.108Z,2.17
2022-10-28T06:03:54.328Z,2.20
2022-10-28T06:06:21.503Z,1.85
2022-10-28T06:08:48.665Z,1.60
2022-10-28T06:11:14.312Z,2.30
2022-10-28T06:13:41.472Z,2.60
2022-10-28T06:16:08.630Z,1.98
2022-10-28T06:18:35.759Z,1.98
2022-10-28T06:21:03.725Z,1.83
2022-10-28T06:23:30.889Z,2.40
2022-10-28T06:25:59.667Z,1.88
2022-10-28T06:28:27.279Z,1.55
2022-10-28T06:30:59.854Z,2.15
2022-10-28T06:33:26.992Z,2.30
2022-10-28T06:35:57.496Z,2.20
2022-10-28T06:38:25.601Z,2.22
2022-10-28T06:40:52.813Z,2.20
2022-10-28T06:43:19.976Z,1.80
2022-10-28T06:45:52.071Z,1.70
2022-10-28T06:48:20.828Z,2.08
2022-10-28T06:50:47.988Z,2.00
2022-10-28T06:53:15.130Z,2.08
2022-10-28T06:55:42.297Z,1.77
2022-10-28T06:58:10.452Z,3.13
2022-10-28T07:00:37.586Z,2.45
2022-10-28T07:03:04.859Z,1.95
2022-10-28T07:05:32.057Z,2.05
2022-10-28T07:07:59.180Z,1.92
2022-10-28T07:10:26.331Z,2.35
2022-10-28T07:12:54.258Z,1.90
2022-10-28T07:15:21.980Z,1.63
2022-10-28T07:17:56.693Z,2.25
2022-10-28T07:20:25.025Z,1.80
2022-10-28T07:22:59.516Z,2.78
2022-10-28T07:25:28.828Z,1.88
2022-10-28T07:27:58.337Z,1.75
2022-10-28T07:30:25.887Z,2.03
2022-10-28T07:32:53.345Z,2.03
2022-10-28T07:35:20.758Z,1.92
2022-10-28T07:37:47.966Z,2.45
2022-10-28T07:40:15.303Z,2.10
2022-10-28T07:42:42.463Z,2.17
2022-10-28T07:45:09.837Z,2.03
2022-10-28T07:47:37.033Z,2.67
2022-10-28T07:50:04.664Z,2.17
2022-10-28T07:52:31.873Z,2.72
2022-10-28T07:54:59.035Z,1.90
2022-10-28T07:57:26.144Z,1.75
2022-10-28T07:59:53.310Z,2.45
2022-10-28T08:02:22.635Z,2.30
2022-10-28T08:04:49.955Z,2.28
2022-10-28T08:07:17.692Z,1.85
2022-10-28T08:09:44.885Z,1.77
2022-10-28T08:12:15.645Z,2.10
2022-10-28T08:14:42.787Z,2.33
2022-10-28T08:17:10.322Z,2.40
2022-10-28T08:19:37.492Z,2.15
2022-10-28T08:22:08.018Z,2.58
2022-10-28T08:24:36.552Z,1.90
2022-10-28T08:27:03.898Z,1.83
2022-10-28T08:29:31.039Z,1.95
2022-10-28T08:32:03.830Z,2.40
2022-10-28T08:34:49.709Z,2.15
2022-10-28T08:37:25.395Z,1.90
2022-10-28T08:39:53.794Z,1.90
2022-10-28T08:43:00.032Z,1.98
2022-10-28T08:45:45.486Z,1.85
2022-10-28T08:48:34.076Z,2.25
2022-10-28T08:51:25.446Z,1.92
2022-10-28T08:53:59.093Z,2.38
2022-10-28T08:56:47.825Z,2.00
2022-10-28T08:59:33.618Z,2.15
2022-10-28T09:02:14.532Z,2.40
2022-10-28T09:04:44.624Z,1.52
2022-10-28T09:07:18.919Z,1.95
2022-10-28T09:09:50.350Z,2.05
2022-10-28T09:12:39.718Z,2.35
2022-10-28T09:15:23.185Z,2.15
2022-10-28T09:18:04.465Z,2.38
2022-10-28T09:20:35.779Z,2.15
2022-10-28T09:23:17.795Z,2.78
2022-10-28T09:25:52.837Z,2.30
2022-10-28T09:28:19.904Z,3.10
2022-10-28T09:31:05.658Z,2.17
2022-10-28T09:33:32.746Z,2.00
2022-10-28T09:36:00.161Z,2.10
2022-10-28T09:38:34.299Z,2.80
2022-10-28T09:41:10.891Z,2.30
2022-10-28T09:43:43.772Z,2.38
2022-10-28T09:46:17.275Z,2.45
2022-10-28T09:48:50.135Z,1.77
2022-10-28T09:51:43.239Z,2.67
2022-10-28T09:54:11.805Z,2.15
2022-10-28T09:56:39.402Z,2.15
2022-10-28T09:59:06.991Z,2.30
2022-10-28T10:01:35.977Z,2.30
2022-10-28T10:04:05.624Z,2.33
2022-10-28T10:06:36.557Z,2.00
2022-10-28T10:09:04.208Z,2.90
2022-10-28T10:11:38.917Z,3.10
2022-10-28T10:14:09.510Z,2.42
2022-10-28T10:19:11.011Z,1.98
2022-10-28T10:21:43.089Z,2.28
2022-10-28T10:24:35.986Z,2.55
2022-10-28T10:27:10.614Z,2.40
2022-10-28T10:29:43.940Z,2.63
2022-10-28T10:32:31.660Z,2.13
2022-10-28T10:35:24.540Z,2.78
2022-10-28T10:37:52.462Z,2.88
2022-10-28T10:40:27.832Z,3.13
2022-10-28T10:43:12.961Z,2.53
2022-10-28T10:45:41.317Z,2.80
2022-10-28T10:48:14.029Z,2.50
2022-10-28T10:50:43.146Z,2.30
2022-10-28T10:53:33.227Z,2.55
2022-10-28T10:56:06.157Z,2.35
2022-10-28T10:58:37.178Z,2.72
2022-10-28T11:01:07.254Z,2.80
2022-10-28T11:03:49.761Z,2.88
2022-10-28T11:06:24.872Z,2.50
2022-10-28T11:09:19.294Z,2.53
2022-10-28T11:11:46.469Z,3.10
2022-10-28T11:14:13.535Z,2.55
2022-10-28T11:16:49.993Z,2.08
2022-10-28T11:19:22.637Z,2.38
2022-10-28T11:21:56.612Z,3.22
2022-10-28T11:24:35.691Z,2.47
2022-10-28T11:27:08.646Z,2.60
2022-10-28T11:29:35.918Z,2.78
2022-10-28T11:32:25.019Z,1.88
2022-10-28T11:35:10.715Z,2.80
2022-10-28T11:37:51.900Z,2.80
2022-10-28T11:40:25.422Z,3.08
2022-10-28T11:43:22.402Z,2.47
2022-10-28T11:46:04.921Z,2.42
2022-10-28T11:48:37.868Z,3.70
2022-10-28T11:51:28.079Z,2.60
2022-10-28T11:54:52.293Z,2.13
2022-10-28T11:57:49.425Z,2.60
2022-10-28T12:00:19.155Z,2.88
2022-10-28T12:03:01.702Z,2.70
2022-10-28T12:05:34.004Z,2.63
2022-10-28T12:08:12.628Z,2.53
2022-10-28T12:10:48.504Z,2.25
2022-10-28T12:13:54.306Z,2.80
2022-10-28T12:16:49.604Z,2.60
2022-10-28T12:19:39.818Z,2.70
2022-10-28T12:22:13.316Z,2.67
2022-10-28T12:24:42.659Z,2.70
2022-10-28T12:27:31.421Z,2.90
2022-10-28T12:30:03.833Z,2.42
2022-10-28T12:32:34.183Z,4.03
2022-10-28T12:35:17.698Z,4.68
2022-10-28T12:37:48.767Z,2.65
2022-10-28T12:40:28.305Z,3.25
2022-10-28T12:43:21.166Z,2.45
2022-10-28T12:45:49.717Z,2.03
2022-10-28T12:48:33.938Z,2.47
2022-10-28T12:51:17.699Z,3.08
2022-10-28T12:53:47.790Z,2.70
2022-10-28T12:56:24.666Z,2.13
2022-10-28T13:01:36.937Z,3.17
2022-10-28T13:04:04.705Z,1.98
2022-10-28T13:06:50.351Z,3.10
2022-10-28T13:09:17.469Z,2.85
2022-10-28T13:12:12.214Z,2.53
2022-10-28T13:15:02.175Z,2.85
2022-10-28T13:18:06.988Z,2.78
2022-10-28T13:20:52.434Z,3.03
2022-10-28T13:23:19.574Z,3.17
2022-10-28T13:25:59.954Z,3.17
2022-10-28T13:28:46.360Z,2.35
2022-10-28T13:31:15.367Z,3.00
2022-10-28T13:33:53.776Z,2.00
2022-10-28T13:36:27.361Z,3.33
2022-10-28T13:38:59.951Z,2.53
2022-10-28T13:41:48.905Z,3.70
2022-10-28T13:44:23.935Z,3.67
2022-10-28T13:46:59.956Z,3.00
2022-10-28T13:49:34.655Z,3.17
2022-10-28T13:52:18.449Z,3.72
2022-10-28T13:54:45.540Z,2.85
2022-10-28T13:57:29.051Z,2.50
2022-10-28T14:00:09.433Z,3.65
2022-10-28T14:02:42.096Z,2.78
2022-10-28T14:05:14.564Z,2.50
2022-10-28T14:08:05.367Z,2.40
2022-10-28T14:10:34.241Z,3.60
2022-10-28T14:13:03.803Z,3.83
2022-10-28T14:15:38.524Z,3.58
2022-10-28T14:18:42.171Z,3.25
2022-10-28T14:21:10.636Z,2.85
2022-10-28T14:23:43.628Z,2.65
2022-10-28T14:26:11.031Z,3.38
2022-10-28T14:28:38.135Z,3.28
2022-10-28T14:31:11.422Z,2.67
2022-10-28T14:33:44.685Z,3.42
2022-10-28T14:36:21.020Z,2.90
2022-10-28T14:39:03.065Z,3.63
2022-10-28T14:41:58.074Z,3.22
2022-10-28T14:44:42.347Z,3.28
2022-10-28T14:47:39.628Z,3.08
2022-10-28T14:50:16.867Z,3.10
2022-10-28T14:52:45.056Z,2.78
2022-10-28T14:55:30.280Z,3.67
2022-10-28T14:58:39.576Z,3.33
2022-10-28T15:01:19.863Z,3.58
2022-10-28T15:06:32.819Z,3.47
2022-10-28T15:09:16.950Z,2.83
2022-10-28T15:11:47.437Z,3.75
2022-10-28T15:17:16.074Z,3.25
2022-10-28T15:19:44.231Z,3.25
2022-10-28T15:22:13.396Z,3.03
2022-10-28T15:24:44.589Z,3.65
2022-10-28T15:27:14.501Z,2.80
2022-10-28T15:29:42.870Z,2.65
2022-10-28T15:32:34.647Z,2.45
2022-10-28T15:35:27.883Z,2.45
2022-10-28T15:37:56.459Z,3.72
2022-10-28T15:40:30.456Z,3.38
2022-10-28T15:43:04.961Z,3.08
2022-10-28T15:45:42.139Z,3.10
2022-10-28T15:48:14.784Z,3.95
2022-10-28T15:50:42.239Z,3.05
2022-10-28T15:53:27.234Z,3.50
2022-10-28T15:56:18.643Z,3.53
2022-10-28T15:59:07.643Z,3.55
2022-10-28T16:01:39.680Z,3.15
2022-10-28T16:04:39.377Z,3.35
2022-10-28T16:07:08.575Z,3.15
2022-10-28T16:09:43.831Z,3.15
2022-10-28T16:12:19.931Z,2.85
2022-10-28T16:15:01.555Z,3.33
2022-10-28T16:17:30.810Z,3.53
2022-10-28T16:19:59.998Z,3.55
2022-10-28T16:22:28.320Z,3.60
2022-10-28T16:24:55.768Z,3.08
2022-10-28T16:27:24.503Z,3.70
2022-10-28T16:29:51.810Z,3.38
2022-10-28T16:32:24.274Z,3.50
2022-10-28T16:34:51.448Z,4.05
2022-10-28T16:37:24.535Z,2.88
2022-10-28T16:39:51.704Z,3.70
2022-10-28T16:42:19.560Z,3.42
2022-10-28T16:44:46.769Z,3.88
2022-10-28T16:47:16.056Z,3.08
2022-10-28T16:49:43.442Z,3.42
2022-10-28T16:52:16.149Z,3.40
2022-10-28T16:54:43.729Z,2.72
2022-10-28T16:57:10.975Z,3.80
2022-10-28T16:59:38.260Z,3.60
2022-10-28T17:02:24.499Z,4.03
2022-10-28T17:04:51.859Z,3.50
2022-10-28T17:07:18.980Z,4.18
2022-10-28T17:09:46.276Z,3.72
2022-10-28T17:12:21.905Z,2.95
2022-10-28T17:14:49.426Z,2.95
2022-10-28T17:17:17.122Z,4.10
2022-10-28T17:19:45.671Z,4.07
2022-10-28T17:22:13.393Z,3.08
2022-10-28T17:24:40.531Z,3.13
2022-10-28T17:27:07.922Z,3.38
2022-10-28T17:29:35.202Z,2.92
2022-10-28T17:32:02.420Z,3.30
2022-10-28T17:34:29.676Z,3.00
2022-10-28T17:36:56.918Z,3.40
2022-10-28T17:39:26.478Z,3.35
2022-10-28T17:41:54.049Z,3.22
2022-10-28T17:44:21.315Z,3.17
2022-10-28T17:46:49.163Z,3.50
2022-10-28T17:49:16.360Z,3.10
2022-10-28T17:51:43.590Z,2.78
2022-10-28T17:54:11.161Z,3.40
2022-10-28T17:56:40.066Z,3.00
2022-10-28T17:59:07.280Z,2.95
2022-10-28T18:01:35.498Z,2.58
2022-10-28T18:04:06.090Z,3.42
2022-10-28T18:06:33.369Z,3.03
2022-10-28T18:09:00.504Z,3.05
2022-10-28T18:11:29.787Z,3.70
2022-10-28T18:13:56.955Z,2.72
2022-10-28T18:16:27.514Z,3.22
2022-10-28T18:21:23.233Z,2.80
2022-10-28T18:23:54.357Z,2.90
2022-10-28T18:26:21.866Z,3.28
2022-10-28T18:28:49.568Z,3.50
2022-10-28T18:31:18.564Z,3.50
2022-10-28T18:33:46.197Z,3.40
2022-10-28T18:36:15.537Z,3.63
2022-10-28T18:38:43.093Z,2.50
2022-10-28T18:41:15.213Z,3.17
2022-10-28T18:43:42.417Z,2.83
2022-10-28T18:46:09.822Z,3.20
2022-10-28T18:48:37.010Z,3.40
2022-10-28T18:51:07.359Z,3.45
2022-10-28T18:53:39.929Z,3.50
2022-10-28T18:56:09.859Z,3.15
2022-10-28T18:58:37.019Z,2.75
2022-10-28T19:01:13.052Z,3.10
2022-10-28T19:03:40.866Z,3.05
2022-10-28T19:06:10.877Z,3.05
2022-10-28T19:08:38.663Z,2.60
2022-10-28T19:11:06.591Z,3.47
2022-10-28T19:13:35.157Z,3.78
2022-10-28T19:16:02.406Z,2.38
2022-10-28T19:18:30.173Z,3.58
2022-10-28T19:21:04.919Z,3.00
2022-10-28T19:23:32.930Z,2.53
2022-10-28T19:26:00.677Z,3.03
2022-10-28T19:28:27.900Z,2.70
2022-10-28T19:31:02.297Z,3.15
2022-10-28T19:33:30.839Z,2.78
2022-10-28T19:36:11.539Z,3.15
2022-10-28T19:41:07.958Z,2.80
2022-10-28T19:43:35.804Z,3.65
2022-10-28T19:46:07.676Z,3.28
2022-10-28T19:48:34.825Z,2.72
2022-10-28T19:51:02.034Z,3.45
2022-10-28T19:53:29.319Z,3.20
2022-10-28T19:55:58.178Z,2.67
2022-10-28T19:58:25.990Z,3.63
2022-10-28T20:01:01.409Z,3.45
2022-10-28T20:03:33.070Z,3.58
2022-10-28T20:06:04.842Z,2.60
2022-10-28T20:08:35.240Z,3.28
2022-10-28T20:11:05.036Z,3.35
2022-10-28T20:13:32.587Z,2.93
2022-10-28T20:16:11.465Z,3.65
2022-10-28T20:18:39.054Z,4.03
2022-10-28T20:21:13.606Z,4.30
2022-10-28T20:23:41.802Z,3.22
2022-10-28T20:26:09.551Z,3.35
2022-10-28T20:28:37.196Z,2.95
2022-10-28T20:31:08.479Z,3.03
2022-10-28T20:33:37.326Z,2.97
2022-10-28T20:36:05.498Z,3.25
2022-10-28T20:38:32.642Z,3.40
2022-10-28T20:41:01.002Z,2.70
2022-10-28T20:43:29.641Z,3.13
2022-10-28T20:46:02.572Z,3.15
2022-10-28T20:48:30.493Z,3.38
2022-10-28T20:51:02.068Z,2.83
2022-10-28T20:53:34.080Z,3.15
2022-10-28T20:56:04.123Z,3.47
2022-10-28T20:58:33.205Z,3.90
2022-10-28T21:01:06.051Z,4.15
2022-10-28T21:11:45.107Z,3.22
2022-10-28T21:24:34.912Z,3.60
2022-10-28T21:27:02.039Z,3.45
2022-10-28T21:29:29.222Z,3.10
2022-10-28T21:31:56.386Z,3.38
2022-10-28T21:34:23.522Z,3.25
2022-10-28T21:36:50.650Z,3.53
2022-10-28T21:39:17.781Z,3.53
2022-10-28T21:41:44.905Z,2.88
2022-10-28T21:44:12.189Z,3.30
2022-10-28T21:46:39.296Z,3.13
2022-10-28T21:49:06.436Z,3.28
2022-10-28T21:51:33.574Z,2.67
2022-10-28T21:54:00.697Z,3.05
2022-10-28T21:56:27.853Z,2.97
2022-10-28T21:58:54.972Z,3.45
2022-10-28T22:01:23.797Z,3.38
2022-10-28T22:03:54.353Z,3.53
2022-10-28T22:06:21.826Z,2.30
2022-10-28T22:08:48.980Z,3.92
2022-10-28T22:11:18.788Z,3.67
2022-10-28T22:13:46.593Z,3.10
2022-10-28T22:16:15.953Z,3.67
2022-10-28T22:18:43.638Z,2.70
2022-10-28T22:21:22.201Z,3.35
2022-10-28T22:23:49.797Z,3.38
2022-10-28T22:26:25.473Z,3.22
2022-10-28T22:28:53.005Z,2.90
2022-10-28T22:31:22.798Z,3.00
2022-10-28T22:33:50.689Z,2.97
2022-10-28T22:36:20.701Z,3.20
2022-10-28T22:38:48.259Z,2.55
2022-10-28T22:41:17.987Z,3.03
2022-10-28T22:43:47.818Z,2.88
2022-10-28T22:46:15.294Z,3.87
2022-10-28T22:48:42.674Z,2.63
2022-10-28T22:51:10.193Z,3.28
2022-10-28T22:53:38.816Z,3.78
2022-10-28T22:56:13.593Z,2.70
2022-10-28T22:58:40.706Z,3.35
2022-10-28T23:01:09.996Z,3.38
2022-10-28T23:03:42.643Z,3.58
2022-10-28T23:06:11.036Z,3.08
2022-10-28T23:08:39.558Z,3.40
2022-10-28T23:11:07.717Z,3.00
2022-10-28T23:13:35.451Z,2.60
2022-10-28T23:16:11.221Z,2.70
2022-10-28T23:18:38.450Z,2.85
2022-10-28T23:21:24.174Z,2.97
2022-10-28T23:23:55.856Z,2.70
2022-10-28T23:26:23.286Z,2.90
2022-10-28T23:28:55.385Z,3.08
2022-10-28T23:31:23.085Z,3.55
2022-10-28T23:33:50.802Z,3.20
2022-10-28T23:36:18.137Z,3.08
2022-10-28T23:38:45.267Z,3.33
2022-10-28T23:41:15.999Z,3.03
2022-10-28T23:46:10.962Z,3.03
2022-10-28T23:48:38.288Z,3.40
2022-10-28T23:51:05.835Z,3.10
2022-10-28T23:53:33.071Z,2.75
2022-10-28T23:56:00.319Z,3.10
2022-10-28T23:58:27.454Z,2.75
